sensor_id;sensor_type;location;lat;lon;timestamp;pressure;altitude;pressure_sealevel;temperature;humidity
66486;BME280;53303;47.476;8.084;2023-04-19T00:01:53;95570.94;;;20.65;40.55
66486;BME280;53303;47.476;8.084;2023-04-19T00:04:20;95560.09;;;20.62;40.70
66486;BME280;53303;47.476;8.084;2023-04-19T00:06:51;95577.22;;;20.66;40.71
66486;BME280;53303;47.476;8.084;2023-04-19T00:09:17;95570.94;;;20.65;40.70
66486;BME280;53303;47.476;8.084;2023-04-19T00:11:42;95574.47;;;20.66;40.84
66486;BME280;53303;47.476;8.084;2023-04-19T00:14:08;95570.69;;;20.63;40.61
66486;BME280;53303;47.476;8.084;2023-04-19T00:16:35;95553.31;;;20.57;40.81
66486;BME280;53303;47.476;8.084;2023-04-19T00:19:01;95570.19;;;20.65;40.67
66486;BME280;53303;47.476;8.084;2023-04-19T00:21:26;95565.91;;;20.64;40.55
66486;BME280;53303;47.476;8.084;2023-04-19T00:23:52;95562.63;;;20.65;40.48
66486;BME280;53303;47.476;8.084;2023-04-19T00:26:20;95555.53;;;20.59;40.63
66486;BME280;53303;47.476;8.084;2023-04-19T00:28:48;95563.91;;;20.64;40.56
66486;BME280;53303;47.476;8.084;2023-04-19T00:31:16;95566.66;;;20.64;40.46
66486;BME280;53303;47.476;8.084;2023-04-19T00:33:41;95549.25;;;20.58;40.55
66486;BME280;53303;47.476;8.084;2023-04-19T00:36:07;95556.81;;;20.58;40.58
66486;BME280;53303;47.476;8.084;2023-04-19T00:38:32;95557.34;;;20.62;40.68
66486;BME280;53303;47.476;8.084;2023-04-19T00:40:58;95558.09;;;20.62;40.70
66486;BME280;53303;47.476;8.084;2023-04-19T00:43:23;95560.34;;;20.64;40.55
66486;BME280;53303;47.476;8.084;2023-04-19T00:45:49;95561.63;;;20.63;40.65
66486;BME280;53303;47.476;8.084;2023-04-19T00:48:14;95560.34;;;20.64;40.76
66486;BME280;53303;47.476;8.084;2023-04-19T00:50:42;95558.34;;;20.64;40.53
66486;BME280;53303;47.476;8.084;2023-04-19T00:53:09;95554.06;;;20.58;40.39
66486;BME280;53303;47.476;8.084;2023-04-19T00:55:38;95560.34;;;20.64;40.48
66486;BME280;53303;47.476;8.084;2023-04-19T00:58:04;95549.78;;;20.62;40.51
66486;BME280;53303;47.476;8.084;2023-04-19T01:00:30;95516.56;;;20.40;40.53
66486;BME280;53303;47.476;8.084;2023-04-19T01:02:57;95554.06;;;20.63;40.56
66486;BME280;53303;47.476;8.084;2023-04-19T01:05:23;95534.41;;;20.56;40.62
66486;BME280;53303;47.476;8.084;2023-04-19T01:07:48;95538.44;;;20.54;40.59
66486;BME280;53303;47.476;8.084;2023-04-19T01:10:16;95540.94;;;20.64;40.42
66486;BME280;53303;47.476;8.084;2023-04-19T01:12:42;95539.69;;;20.59;40.38
66486;BME280;53303;47.476;8.084;2023-04-19T01:15:08;95545.00;;;20.63;40.54
66486;BME280;53303;47.476;8.084;2023-04-19T01:17:36;95541.44;;;20.62;40.55
66486;BME280;53303;47.476;8.084;2023-04-19T01:20:03;95539.44;;;20.63;40.53
66486;BME280;53303;47.476;8.084;2023-04-19T01:22:33;95535.91;;;20.62;40.34
66486;BME280;53303;47.476;8.084;2023-04-19T01:24:58;95531.13;;;20.63;40.44
66486;BME280;53303;47.476;8.084;2023-04-19T01:27:24;95535.16;;;20.62;40.48
66486;BME280;53303;47.476;8.084;2023-04-19T01:29:51;95528.09;;;20.61;40.63
66486;BME280;53303;47.476;8.084;2023-04-19T01:32:17;95526.56;;;20.60;40.52
66486;BME280;53303;47.476;8.084;2023-04-19T01:34:42;95530.88;;;20.61;40.62
66486;BME280;53303;47.476;8.084;2023-04-19T01:37:08;95528.88;;;20.61;40.55
66486;BME280;53303;47.476;8.084;2023-04-19T01:39:33;95530.88;;;20.61;40.56
66486;BME280;53303;47.476;8.084;2023-04-19T01:41:58;95520.53;;;20.56;40.59
66486;BME280;53303;47.476;8.084;2023-04-19T01:44:27;95521.03;;;20.60;40.30
66486;BME280;53303;47.476;8.084;2023-04-19T01:46:53;95521.28;;;20.62;40.50
66486;BME280;53303;47.476;8.084;2023-04-19T01:49:19;95511.44;;;20.55;40.37
66486;BME280;53303;47.476;8.084;2023-04-19T01:51:45;95520.56;;;20.61;40.22
66486;BME280;53303;47.476;8.084;2023-04-19T01:54:12;95511.72;;;20.57;40.45
66486;BME280;53303;47.476;8.084;2023-04-19T01:56:38;95503.41;;;20.51;40.42
66486;BME280;53303;47.476;8.084;2023-04-19T01:59:03;95516.50;;;20.62;40.38
66486;BME280;53303;47.476;8.084;2023-04-19T02:01:29;95503.66;;;20.53;40.48
66486;BME280;53303;47.476;8.084;2023-04-19T02:03:54;95511.19;;;20.59;40.78
66486;BME280;53303;47.476;8.084;2023-04-19T02:06:20;95470.97;;;20.29;40.46
66486;BME280;53303;47.476;8.084;2023-04-19T02:08:45;95511.47;;;20.61;40.54
66486;BME280;53303;47.476;8.084;2023-04-19T02:11:12;95505.91;;;20.61;40.44
66486;BME280;53303;47.476;8.084;2023-04-19T02:13:39;95506.69;;;20.56;40.14
66486;BME280;53303;47.476;8.084;2023-04-19T02:16:06;95508.69;;;20.61;40.36
66486;BME280;53303;47.476;8.084;2023-04-19T02:18:31;95503.91;;;20.61;40.45
66486;BME280;53303;47.476;8.084;2023-04-19T02:21:00;95492.06;;;20.49;40.14
66486;BME280;53303;47.476;8.084;2023-04-19T02:23:28;95505.91;;;20.61;40.33
66486;BME280;53303;47.476;8.084;2023-04-19T02:25:55;95510.22;;;20.62;40.43
66486;BME280;53303;47.476;8.084;2023-04-19T02:28:21;95501.88;;;20.62;40.40
66486;BME280;53303;47.476;8.084;2023-04-19T02:30:47;95492.81;;;20.56;40.38
66486;BME280;53303;47.476;8.084;2023-04-19T02:33:13;95503.91;;;20.61;40.44
66486;BME280;53303;47.476;8.084;2023-04-19T02:35:38;95494.56;;;20.59;40.40
66486;BME280;53303;47.476;8.084;2023-04-19T02:38:07;95481.50;;;20.48;40.41
66486;BME280;53303;47.476;8.084;2023-04-19T02:40:32;95499.13;;;20.62;40.43
66486;BME280;53303;47.476;8.084;2023-04-19T02:42:57;95501.16;;;20.61;40.49
66486;BME280;53303;47.476;8.084;2023-04-19T02:45:23;95482.25;;;20.54;40.27
66486;BME280;53303;47.476;8.084;2023-04-19T02:47:48;95497.59;;;20.61;40.45
66486;BME280;53303;47.476;8.084;2023-04-19T02:50:16;95493.31;;;20.60;40.23
66486;BME280;53303;47.476;8.084;2023-04-19T02:52:44;95496.06;;;20.60;40.42
66486;BME280;53303;47.476;8.084;2023-04-19T02:55:12;95496.34;;;20.62;40.37
66486;BME280;53303;47.476;8.084;2023-04-19T02:57:37;95491.28;;;20.60;40.37
66486;BME280;53303;47.476;8.084;2023-04-19T03:00:03;95484.75;;;20.58;40.38
66486;BME280;53303;47.476;8.084;2023-04-19T03:02:36;95471.91;;;20.49;40.35
66486;BME280;53303;47.476;8.084;2023-04-19T03:05:02;95492.06;;;20.61;40.23
66486;BME280;53303;47.476;8.084;2023-04-19T03:07:28;95472.44;;;20.47;40.37
66486;BME280;53303;47.476;8.084;2023-04-19T03:09:53;95490.28;;;20.58;40.30
66486;BME280;53303;47.476;8.084;2023-04-19T03:12:19;95492.81;;;20.61;40.30
66486;BME280;53303;47.476;8.084;2023-04-19T03:14:46;95497.09;;;20.62;40.48
66486;BME280;53303;47.476;8.084;2023-04-19T03:17:13;95487.75;;;20.60;40.23
66486;BME280;53303;47.476;8.084;2023-04-19T03:19:38;95482.22;;;20.60;40.31
66486;BME280;53303;47.476;8.084;2023-04-19T03:22:04;95495.59;;;20.61;40.19
66486;BME280;53303;47.476;8.084;2023-04-19T03:24:30;95462.34;;;20.44;40.46
66486;BME280;53303;47.476;8.084;2023-04-19T03:26:56;95496.34;;;20.62;40.25
66486;BME280;53303;47.476;8.084;2023-04-19T03:29:22;95485.25;;;20.56;40.36
66486;BME280;53303;47.476;8.084;2023-04-19T03:31:48;95487.28;;;20.56;40.28
66486;BME280;53303;47.476;8.084;2023-04-19T03:34:15;95492.06;;;20.61;40.23
66486;BME280;53303;47.476;8.084;2023-04-19T03:36:41;95483.75;;;20.61;40.33
66486;BME280;53303;47.476;8.084;2023-04-19T03:39:08;95485.00;;;20.60;40.51
66486;BME280;53303;47.476;8.084;2023-04-19T03:41:34;95478.19;;;20.61;40.38
66486;BME280;53303;47.476;8.084;2023-04-19T03:43:59;95470.41;;;20.53;40.23
66486;BME280;53303;47.476;8.084;2023-04-19T03:46:25;95474.91;;;20.57;40.44
66486;BME280;53303;47.476;8.084;2023-04-19T03:48:51;95476.44;;;20.58;40.32
66486;BME280;53303;47.476;8.084;2023-04-19T03:51:17;95479.44;;;20.60;40.35
66486;BME280;53303;47.476;8.084;2023-04-19T03:53:43;95450.53;;;20.44;40.34
66486;BME280;53303;47.476;8.084;2023-04-19T03:56:08;95458.06;;;20.49;40.46
66486;BME280;53303;47.476;8.084;2023-04-19T03:58:34;95467.59;;;20.59;40.25
66486;BME280;53303;47.476;8.084;2023-04-19T04:01:00;95471.88;;;20.60;39.92
66486;BME280;53303;47.476;8.084;2023-04-19T04:03:25;95469.38;;;20.62;40.05
66486;BME280;53303;47.476;8.084;2023-04-19T04:05:51;95468.63;;;20.62;40.29
66486;BME280;53303;47.476;8.084;2023-04-19T04:08:17;95467.09;;;20.61;40.10
66486;BME280;53303;47.476;8.084;2023-04-19T04:10:44;95475.69;;;20.63;40.11
66486;BME280;53303;47.476;8.084;2023-04-19T04:13:10;95474.41;;;20.64;40.08
66486;BME280;53303;47.476;8.084;2023-04-19T04:15:35;95468.13;;;20.63;40.04
66486;BME280;53303;47.476;8.084;2023-04-19T04:18:01;95460.56;;;20.52;40.23
66486;BME280;53303;47.476;8.084;2023-04-19T04:20:26;95467.38;;;20.63;40.18
66486;BME280;53303;47.476;8.084;2023-04-19T04:22:51;95473.16;;;20.65;40.05
66486;BME280;53303;47.476;8.084;2023-04-19T04:25:17;95474.66;;;20.60;40.50
66486;BME280;53303;47.476;8.084;2023-04-19T04:27:43;95478.19;;;20.66;40.01
66486;BME280;53303;47.476;8.084;2023-04-19T04:30:09;95483.75;;;20.66;40.23
66486;BME280;53303;47.476;8.084;2023-04-19T04:32:35;95472.91;;;20.63;40.22
66486;BME280;53303;47.476;8.084;2023-04-19T04:35:02;95483.75;;;20.66;40.22
66486;BME280;53303;47.476;8.084;2023-04-19T04:37:28;95476.91;;;20.67;40.13
66486;BME280;53303;47.476;8.084;2023-04-19T04:39:55;95472.41;;;20.64;40.16
66486;BME280;53303;47.476;8.084;2023-04-19T04:42:23;95470.13;;;20.63;40.29
66486;BME280;53303;47.476;8.084;2023-04-19T04:44:52;95480.47;;;20.68;40.12
66486;BME280;53303;47.476;8.084;2023-04-19T04:47:17;95480.47;;;20.68;40.19
66486;BME280;53303;47.476;8.084;2023-04-19T04:49:47;95476.41;;;20.69;40.01
66486;BME280;53303;47.476;8.084;2023-04-19T04:52:12;95481.19;;;20.68;40.26
66486;BME280;53303;47.476;8.084;2023-04-19T04:54:40;95475.66;;;20.68;40.29
66486;BME280;53303;47.476;8.084;2023-04-19T04:57:05;95487.50;;;20.69;40.03
66486;BME280;53303;47.476;8.084;2023-04-19T04:59:33;95481.72;;;20.67;40.28
66486;BME280;53303;47.476;8.084;2023-04-19T05:01:58;95456.09;;;20.38;40.34
66486;BME280;53303;47.476;8.084;2023-04-19T05:04:24;95481.94;;;20.69;40.13
66486;BME280;53303;47.476;8.084;2023-04-19T05:06:50;95471.88;;;20.60;40.05
66486;BME280;53303;47.476;8.084;2023-04-19T05:09:17;95450.00;;;20.45;40.04
66486;BME280;53303;47.476;8.084;2023-04-19T05:11:43;95481.19;;;20.68;40.27
66486;BME280;53303;47.476;8.084;2023-04-19T05:14:12;95486.25;;;20.70;40.22
66486;BME280;53303;47.476;8.084;2023-04-19T05:16:40;95480.19;;;20.60;40.31
66486;BME280;53303;47.476;8.084;2023-04-19T05:19:06;95482.69;;;20.69;40.09
66486;BME280;53303;47.476;8.084;2023-04-19T05:21:37;95489.03;;;20.70;39.95
66486;BME280;53303;47.476;8.084;2023-04-19T05:24:02;95489.75;;;20.70;40.33
66486;BME280;53303;47.476;8.084;2023-04-19T05:26:28;95488.50;;;20.71;40.33
66486;BME280;53303;47.476;8.084;2023-04-19T05:28:53;95496.06;;;20.71;40.24
66486;BME280;53303;47.476;8.084;2023-04-19T05:31:19;95484.97;;;20.71;40.05
66486;BME280;53303;47.476;8.084;2023-04-19T05:33:45;95484.22;;;20.70;39.99
66486;BME280;53303;47.476;8.084;2023-04-19T05:36:10;95472.38;;;20.59;40.18
66486;BME280;53303;47.476;8.084;2023-04-19T05:38:36;95468.63;;;20.62;40.28
66486;BME280;53303;47.476;8.084;2023-04-19T05:41:02;95490.28;;;20.69;40.20
66486;BME280;53303;47.476;8.084;2023-04-19T05:43:30;95492.03;;;20.72;40.12
66486;BME280;53303;47.476;8.084;2023-04-19T05:45:56;95484.47;;;20.72;40.17
66486;BME280;53303;47.476;8.084;2023-04-19T05:48:22;95485.50;;;20.64;40.15
66486;BME280;53303;47.476;8.084;2023-04-19T05:50:49;95490.28;;;20.69;40.13
66486;BME280;53303;47.476;8.084;2023-04-19T05:53:16;95484.22;;;20.70;40.27
66486;BME280;53303;47.476;8.084;2023-04-19T05:55:41;95493.03;;;20.69;39.99
66486;BME280;53303;47.476;8.084;2023-04-19T05:58:08;95490.28;;;20.69;40.19
66486;BME280;53303;47.476;8.084;2023-04-19T06:00:34;95494.59;;;20.64;40.35
66486;BME280;53303;47.476;8.084;2023-04-19T06:02:59;95499.09;;;20.73;40.24
66486;BME280;53303;47.476;8.084;2023-04-19T06:05:25;95496.31;;;20.73;40.17
66486;BME280;53303;47.476;8.084;2023-04-19T06:07:50;95498.31;;;20.72;40.16
66486;BME280;53303;47.476;8.084;2023-04-19T06:10:16;95497.06;;;20.73;40.22
66486;BME280;53303;47.476;8.084;2023-04-19T06:12:41;95496.81;;;20.71;40.23
66486;BME280;53303;47.476;8.084;2023-04-19T06:15:12;95491.56;;;20.68;40.28
66486;BME280;53303;47.476;8.084;2023-04-19T06:17:37;95497.81;;;20.74;40.15
66486;BME280;53303;47.476;8.084;2023-04-19T06:20:03;95492.28;;;20.68;40.22
66486;BME280;53303;47.476;8.084;2023-04-19T06:22:33;95490.50;;;20.71;40.11
66486;BME280;53303;47.476;8.084;2023-04-19T06:25:00;95491.78;;;20.70;40.09
66486;BME280;53303;47.476;8.084;2023-04-19T06:27:25;95501.59;;;20.71;40.12
66486;BME280;53303;47.476;8.084;2023-04-19T06:29:51;95498.31;;;20.72;40.33
66486;BME280;53303;47.476;8.084;2023-04-19T06:32:16;95489.78;;;20.65;40.08
66486;BME280;53303;47.476;8.084;2023-04-19T06:34:42;95498.59;;;20.69;40.53
66486;BME280;53303;47.476;8.084;2023-04-19T06:37:07;95497.09;;;20.62;40.18
66486;BME280;53303;47.476;8.084;2023-04-19T06:39:32;95511.69;;;20.74;40.29
66486;BME280;53303;47.476;8.084;2023-04-19T06:42:03;95508.91;;;20.74;40.09
66486;BME280;53303;47.476;8.084;2023-04-19T06:44:29;95497.09;;;20.68;40.14
66486;BME280;53303;47.476;8.084;2023-04-19T06:46:54;95497.34;;;20.70;40.38
66486;BME280;53303;47.476;8.084;2023-04-19T06:49:19;95507.66;;;20.75;40.30
66486;BME280;53303;47.476;8.084;2023-04-19T06:51:46;95497.34;;;20.70;39.88
66486;BME280;53303;47.476;8.084;2023-04-19T06:54:16;95504.09;;;20.75;40.35
66486;BME280;53303;47.476;8.084;2023-04-19T06:56:44;95507.16;;;20.77;40.12
66486;BME280;53303;47.476;8.084;2023-04-19T06:59:13;95511.91;;;20.76;40.25
66486;BME280;53303;47.476;8.084;2023-04-19T07:01:44;95509.91;;;20.77;40.17
66486;BME280;53303;47.476;8.084;2023-04-19T07:04:14;95517.47;;;20.76;40.33
66486;BME280;53303;47.476;8.084;2023-04-19T07:06:40;95508.16;;;20.73;39.91
66486;BME280;53303;47.476;8.084;2023-04-19T07:09:06;95509.91;;;20.77;40.16
66486;BME280;53303;47.476;8.084;2023-04-19T07:11:31;95507.16;;;20.77;40.29
66486;BME280;53303;47.476;8.084;2023-04-19T07:13:57;95510.66;;;20.77;40.14
66486;BME280;53303;47.476;8.084;2023-04-19T07:16:26;95507.91;;;20.77;40.35
66486;BME280;53303;47.476;8.084;2023-04-19T07:18:52;95500.09;;;20.70;40.12
66486;BME280;53303;47.476;8.084;2023-04-19T07:21:17;95496.81;;;20.71;40.33
66486;BME280;53303;47.476;8.084;2023-04-19T07:23:43;95503.13;;;20.72;40.08
66486;BME280;53303;47.476;8.084;2023-04-19T07:26:08;95509.91;;;20.77;40.05
66486;BME280;53303;47.476;8.084;2023-04-19T07:28:37;95506.63;;;20.72;40.16
66486;BME280;53303;47.476;8.084;2023-04-19T07:31:03;95504.38;;;20.77;40.23
66486;BME280;53303;47.476;8.084;2023-04-19T07:33:28;95502.09;;;20.75;40.18
66486;BME280;53303;47.476;8.084;2023-04-19T07:35:56;95510.66;;;20.77;40.09
66486;BME280;53303;47.476;8.084;2023-04-19T07:38:22;95497.56;;;20.72;40.17
66486;BME280;53303;47.476;8.084;2023-04-19T07:40:49;95512.16;;;20.78;39.92
66486;BME280;53303;47.476;8.084;2023-04-19T07:43:14;95508.63;;;20.78;40.05
66486;BME280;53303;47.476;8.084;2023-04-19T07:45:42;95501.84;;;20.79;40.16
66486;BME280;53303;47.476;8.084;2023-04-19T07:48:07;95497.81;;;20.74;40.24
66486;BME280;53303;47.476;8.084;2023-04-19T07:50:32;95505.13;;;20.77;40.16
66486;BME280;53303;47.476;8.084;2023-04-19T07:52:58;95499.56;;;20.77;40.24
66486;BME280;53303;47.476;8.084;2023-04-19T07:55:23;95506.63;;;20.78;40.15
66486;BME280;53303;47.476;8.084;2023-04-19T07:57:49;95491.56;;;20.68;39.89
66486;BME280;53303;47.476;8.084;2023-04-19T08:00:17;95490.00;;;20.72;40.37
66486;BME280;53303;47.476;8.084;2023-04-19T08:02:46;95491.00;;;20.69;39.95
66486;BME280;53303;47.476;8.084;2023-04-19T08:05:13;95500.56;;;20.80;40.22
66486;BME280;53303;47.476;8.084;2023-04-19T08:07:43;95506.88;;;20.80;40.09
66486;BME280;53303;47.476;8.084;2023-04-19T08:10:10;95506.88;;;20.80;40.09
66486;BME280;53303;47.476;8.084;2023-04-19T08:12:36;95504.09;;;20.75;40.13
66486;BME280;53303;47.476;8.084;2023-04-19T08:15:02;95506.88;;;20.80;40.15
66486;BME280;53303;47.476;8.084;2023-04-19T08:17:28;95505.59;;;20.81;40.13
66486;BME280;53303;47.476;8.084;2023-04-19T08:19:53;95492.53;;;20.70;40.08
66486;BME280;53303;47.476;8.084;2023-04-19T08:22:19;95502.09;;;20.81;40.09
66486;BME280;53303;47.476;8.084;2023-04-19T08:24:47;95485.22;;;20.67;40.19
66486;BME280;53303;47.476;8.084;2023-04-19T08:27:15;95501.84;;;20.79;40.21
66486;BME280;53303;47.476;8.084;2023-04-19T08:29:45;95498.28;;;20.78;40.11
66486;BME280;53303;47.476;8.084;2023-04-19T08:32:11;95502.31;;;20.83;40.04
66486;BME280;53303;47.476;8.084;2023-04-19T08:34:38;95506.34;;;20.82;40.12
66486;BME280;53303;47.476;8.084;2023-04-19T08:37:07;95493.53;;;20.79;40.05
66486;BME280;53303;47.476;8.084;2023-04-19T08:39:34;95496.03;;;20.82;40.11
66486;BME280;53303;47.476;8.084;2023-04-19T08:42:04;95499.53;;;20.83;40.15
66486;BME280;53303;47.476;8.084;2023-04-19T08:44:31;95497.03;;;20.79;40.20
66486;BME280;53303;47.476;8.084;2023-04-19T08:47:00;95496.78;;;20.83;40.06
66486;BME280;53303;47.476;8.084;2023-04-19T08:49:28;95498.28;;;20.84;40.14
66486;BME280;53303;47.476;8.084;2023-04-19T08:51:56;95491.03;;;20.75;40.02
66486;BME280;53303;47.476;8.084;2023-04-19T08:54:25;95482.69;;;20.75;40.32
66486;BME280;53303;47.476;8.084;2023-04-19T08:56:52;95500.81;;;20.82;40.13
66486;BME280;53303;47.476;8.084;2023-04-19T08:59:18;95492.75;;;20.84;40.29
66486;BME280;53303;47.476;8.084;2023-04-19T09:01:44;95498.81;;;20.82;40.27
66486;BME280;53303;47.476;8.084;2023-04-19T09:04:11;95479.22;;;20.63;40.37
66486;BME280;53303;47.476;8.084;2023-04-19T09:06:39;95491.00;;;20.81;40.26
66486;BME280;53303;47.476;8.084;2023-04-19T09:11:45;95498.81;;;20.82;40.08
66486;BME280;53303;47.476;8.084;2023-04-19T09:14:13;95485.72;;;20.77;40.03
66486;BME280;53303;47.476;8.084;2023-04-19T09:16:44;95480.66;;;20.76;40.14
66486;BME280;53303;47.476;8.084;2023-04-19T09:19:12;95478.88;;;20.78;40.21
66486;BME280;53303;47.476;8.084;2023-04-19T09:21:38;95493.50;;;20.84;40.13
66486;BME280;53303;47.476;8.084;2023-04-19T09:24:05;95485.44;;;20.81;39.95
66486;BME280;53303;47.476;8.084;2023-04-19T09:26:34;95483.41;;;20.81;40.24
66486;BME280;53303;47.476;8.084;2023-04-19T09:29:08;95482.41;;;20.84;39.87
66486;BME280;53303;47.476;8.084;2023-04-19T09:31:55;95486.94;;;20.82;40.12
66486;BME280;53303;47.476;8.084;2023-04-19T09:34:23;95463.28;;;20.69;40.14
66486;BME280;53303;47.476;8.084;2023-04-19T09:36:49;95474.13;;;20.79;40.16
66486;BME280;53303;47.476;8.084;2023-04-19T09:39:31;95476.84;;;20.84;40.25
66486;BME280;53303;47.476;8.084;2023-04-19T09:41:56;95473.34;;;20.84;40.29
66486;BME280;53303;47.476;8.084;2023-04-19T09:44:23;95473.06;;;20.87;40.23
66486;BME280;53303;47.476;8.084;2023-04-19T09:46:48;95465.75;;;20.84;40.20
66486;BME280;53303;47.476;8.084;2023-04-19T09:52:02;95449.41;;;20.75;39.97
66486;BME280;53303;47.476;8.084;2023-04-19T09:54:32;95459.19;;;20.87;40.18
66486;BME280;53303;47.476;8.084;2023-04-19T09:56:59;95451.63;;;20.88;40.21
66486;BME280;53303;47.476;8.084;2023-04-19T09:59:25;95452.88;;;20.87;40.11
66486;BME280;53303;47.476;8.084;2023-04-19T10:04:18;95451.88;;;20.90;40.21
66486;BME280;53303;47.476;8.084;2023-04-19T10:06:54;95445.84;;;20.86;40.12
66486;BME280;53303;47.476;8.084;2023-04-19T10:09:22;95453.13;;;20.89;40.05
66486;BME280;53303;47.476;8.084;2023-04-19T10:11:50;95448.34;;;20.89;40.14
66486;BME280;53303;47.476;8.084;2023-04-19T10:14:21;95450.59;;;20.91;40.11
66486;BME280;53303;47.476;8.084;2023-04-19T10:16:48;95447.06;;;20.90;40.01
66486;BME280;53303;47.476;8.084;2023-04-19T10:19:16;95439.78;;;20.87;40.17
66486;BME280;53303;47.476;8.084;2023-04-19T10:21:42;95434.50;;;20.84;40.27
66486;BME280;53303;47.476;8.084;2023-04-19T10:24:12;95452.09;;;20.92;40.03
66486;BME280;53303;47.476;8.084;2023-04-19T10:27:13;95441.53;;;20.85;40.07
66486;BME280;53303;47.476;8.084;2023-04-19T10:30:05;95442.81;;;20.84;39.98
66486;BME280;53303;47.476;8.084;2023-04-19T10:32:41;95433.19;;;20.90;40.20
66486;BME280;53303;47.476;8.084;2023-04-19T10:35:16;95432.44;;;20.90;40.23
66486;BME280;53303;47.476;8.084;2023-04-19T10:38:13;95428.22;;;20.78;40.15
66486;BME280;53303;47.476;8.084;2023-04-19T10:43:22;95435.97;;;20.90;40.15
66486;BME280;53303;47.476;8.084;2023-04-19T10:45:48;95423.88;;;20.88;40.17
66486;BME280;53303;47.476;8.084;2023-04-19T10:51:13;95390.69;;;20.71;40.17
66486;BME280;53303;47.476;8.084;2023-04-19T10:56:10;95419.56;;;20.92;40.21
66486;BME280;53303;47.476;8.084;2023-04-19T11:01:36;95411.25;;;20.92;40.04
66486;BME280;53303;47.476;8.084;2023-04-19T11:04:05;95413.25;;;20.92;40.15
66486;BME280;53303;47.476;8.084;2023-04-19T11:06:32;95403.19;;;20.89;40.27
66486;BME280;53303;47.476;8.084;2023-04-19T11:08:58;95402.44;;;20.88;40.19
66486;BME280;53303;47.476;8.084;2023-04-19T11:11:25;95394.88;;;20.89;40.10
66486;BME280;53303;47.476;8.084;2023-04-19T11:13:52;95396.91;;;20.88;40.30
66486;BME280;53303;47.476;8.084;2023-04-19T11:16:19;95403.94;;;20.95;40.31
66486;BME280;53303;47.476;8.084;2023-04-19T11:18:45;95392.38;;;20.85;40.18
66486;BME280;53303;47.476;8.084;2023-04-19T11:21:13;95399.13;;;20.96;40.28
66486;BME280;53303;47.476;8.084;2023-04-19T11:23:41;95396.34;;;20.96;40.21
66486;BME280;53303;47.476;8.084;2023-04-19T11:26:12;95404.66;;;20.96;40.22
66486;BME280;53303;47.476;8.084;2023-04-19T11:28:40;95391.34;;;20.88;40.31
66486;BME280;53303;47.476;8.084;2023-04-19T11:31:08;95394.31;;;20.96;40.28
66486;BME280;53303;47.476;8.084;2023-04-19T11:33:34;95395.84;;;20.97;40.09
66486;BME280;53303;47.476;8.084;2023-04-19T11:36:00;95385.03;;;20.94;40.21
66486;BME280;53303;47.476;8.084;2023-04-19T11:38:29;95384.75;;;20.97;40.05
66486;BME280;53303;47.476;8.084;2023-04-19T11:41:02;95377.69;;;20.96;39.95
66486;BME280;53303;47.476;8.084;2023-04-19T11:43:35;95362.13;;;20.87;40.24
66486;BME280;53303;47.476;8.084;2023-04-19T11:46:07;95364.63;;;20.91;40.24
66486;BME280;53303;47.476;8.084;2023-04-19T11:48:35;95371.63;;;20.98;40.17
66486;BME280;53303;47.476;8.084;2023-04-19T11:51:02;95355.31;;;20.88;40.32
66486;BME280;53303;47.476;8.084;2023-04-19T11:53:29;95352.06;;;20.84;40.20
66486;BME280;53303;47.476;8.084;2023-04-19T11:56:06;95370.88;;;20.97;40.34
66486;BME280;53303;47.476;8.084;2023-04-19T11:58:44;95366.59;;;20.96;40.07
66486;BME280;53303;47.476;8.084;2023-04-19T12:01:14;95360.00;;;20.99;40.23
66486;BME280;53303;47.476;8.084;2023-04-19T12:03:43;95367.59;;;20.99;40.07
66486;BME280;53303;47.476;8.084;2023-04-19T12:06:12;95353.50;;;20.97;40.26
66486;BME280;53303;47.476;8.084;2023-04-19T12:08:41;95352.97;;;20.98;40.13
66486;BME280;53303;47.476;8.084;2023-04-19T12:11:11;95360.75;;;21.00;40.33
66486;BME280;53303;47.476;8.084;2023-04-19T12:13:39;95359.03;;;20.97;40.15
66486;BME280;53303;47.476;8.084;2023-04-19T12:16:06;95356.72;;;21.01;40.15
66486;BME280;53303;47.476;8.084;2023-04-19T12:18:45;95348.44;;;20.95;40.18
66486;BME280;53303;47.476;8.084;2023-04-19T12:21:27;95339.94;;;20.87;40.17
66486;BME280;53303;47.476;8.084;2023-04-19T12:23:55;95343.88;;;20.98;40.18
66486;BME280;53303;47.476;8.084;2023-04-19T12:26:20;95348.41;;;21.01;40.27
66486;BME280;53303;47.476;8.084;2023-04-19T12:28:46;95354.69;;;21.01;40.18
66486;BME280;53303;47.476;8.084;2023-04-19T12:31:11;95347.16;;;21.02;40.22
66486;BME280;53303;47.476;8.084;2023-04-19T12:33:39;95343.59;;;21.01;40.31
66486;BME280;53303;47.476;8.084;2023-04-19T12:36:07;95337.31;;;21.01;40.13
66486;BME280;53303;47.476;8.084;2023-04-19T12:38:32;95347.91;;;21.02;40.10
66486;BME280;53303;47.476;8.084;2023-04-19T12:41:00;95338.81;;;21.02;40.10
66486;BME280;53303;47.476;8.084;2023-04-19T12:43:25;95342.56;;;21.04;40.16
66486;BME280;53303;47.476;8.084;2023-04-19T12:45:51;95336.28;;;21.04;40.17
66486;BME280;53303;47.476;8.084;2023-04-19T12:48:16;95335.53;;;21.03;40.28
66486;BME280;53303;47.476;8.084;2023-04-19T12:50:42;95330.00;;;21.03;39.99
66486;BME280;53303;47.476;8.084;2023-04-19T12:53:07;95335.53;;;21.03;40.17
66486;BME280;53303;47.476;8.084;2023-04-19T12:55:35;95331.53;;;20.99;39.97
66486;BME280;53303;47.476;8.084;2023-04-19T12:58:00;95327.97;;;21.04;40.18
66486;BME280;53303;47.476;8.084;2023-04-19T13:00:34;95325.19;;;21.04;40.14
66486;BME280;53303;47.476;8.084;2023-04-19T13:02:59;95321.13;;;21.05;40.14
66486;BME280;53303;47.476;8.084;2023-04-19T13:05:25;95320.38;;;21.04;40.13
66486;BME280;53303;47.476;8.084;2023-04-19T13:07:50;95320.63;;;21.06;40.10
66486;BME280;53303;47.476;8.084;2023-04-19T13:10:16;95303.78;;;20.99;40.29
66486;BME280;53303;47.476;8.084;2023-04-19T13:12:41;95310.81;;;21.05;40.33
66486;BME280;53303;47.476;8.084;2023-04-19T13:15:07;95312.81;;;21.05;40.16
66486;BME280;53303;47.476;8.084;2023-04-19T13:17:34;95196.38;;;20.33;40.24
66486;BME280;53303;47.476;8.084;2023-04-19T13:20:00;95301.97;;;21.07;40.06